createdAt,value
2023-07-18T00:02:22.153Z,3.40
2023-07-18T00:04:50.126Z,3.10
2023-07-18T00:07:17.950Z,3.83
2023-07-18T00:09:46.296Z,2.88
2023-07-18T00:12:14.175Z,3.15
2023-07-18T00:14:42.273Z,3.05
2023-07-18T00:17:10.187Z,3.35
2023-07-18T00:19:38.760Z,3.42
2023-07-18T00:22:08.854Z,3.40
2023-07-18T00:24:36.684Z,3.40
2023-07-18T00:27:05.224Z,3.00
2023-07-18T00:29:33.053Z,3.45
2023-07-18T00:32:01.093Z,3.45
2023-07-18T00:34:28.994Z,3.67
2023-07-18T00:36:56.858Z,3.65
2023-07-18T00:39:24.750Z,3.53
2023-07-18T00:41:53.368Z,3.63
2023-07-18T00:44:22.863Z,3.60
2023-07-18T00:46:52.535Z,3.50
2023-07-18T00:49:22.423Z,3.60
2023-07-18T00:51:50.577Z,3.33
2023-07-18T00:54:18.906Z,4.22
2023-07-18T00:56:46.809Z,4.13
2023-07-18T00:59:17.585Z,3.58
2023-07-18T01:01:46.271Z,3.70
2023-07-18T01:04:14.968Z,4.32
2023-07-18T01:06:43.218Z,4.35
2023-07-18T01:09:11.043Z,3.92
2023-07-18T01:11:38.878Z,3.55
2023-07-18T01:14:07.030Z,3.15
2023-07-18T01:16:34.766Z,3.60
2023-07-18T01:19:02.522Z,3.20
2023-07-18T01:21:30.318Z,2.92
2023-07-18T01:23:58.110Z,3.10
2023-07-18T01:26:25.987Z,3.60
2023-07-18T01:28:54.237Z,3.20
2023-07-18T01:31:22.113Z,3.25
2023-07-18T01:33:50.013Z,3.53
2023-07-18T01:36:17.793Z,3.35
2023-07-18T01:38:45.682Z,3.55
2023-07-18T01:41:13.519Z,3.55
2023-07-18T01:43:41.415Z,3.58
2023-07-18T01:46:09.641Z,3.45
2023-07-18T01:48:37.701Z,3.90
2023-07-18T01:51:08.833Z,3.67
2023-07-18T01:53:36.813Z,4.00
2023-07-18T01:56:04.730Z,4.25
2023-07-18T01:58:32.581Z,3.80
2023-07-18T02:01:04.164Z,3.55
2023-07-18T02:03:32.941Z,3.25
2023-07-18T02:06:00.837Z,4.20
2023-07-18T02:08:28.632Z,4.35
2023-07-18T02:10:56.445Z,4.28
2023-07-18T02:13:24.229Z,4.30
2023-07-18T02:15:52.069Z,3.92
2023-07-18T02:18:20.105Z,4.15
2023-07-18T02:20:47.886Z,4.43
2023-07-18T02:23:15.926Z,3.95
2023-07-18T02:25:43.775Z,3.90
2023-07-18T02:28:13.772Z,3.80
2023-07-18T02:30:43.565Z,3.85
2023-07-18T02:33:12.128Z,4.07
2023-07-18T02:35:40.441Z,3.60
2023-07-18T02:38:08.270Z,3.80
2023-07-18T02:40:36.052Z,3.78
2023-07-18T02:43:05.835Z,4.30
2023-07-18T02:45:33.646Z,4.53
2023-07-18T02:48:01.537Z,4.15
2023-07-18T02:50:29.505Z,4.07
2023-07-18T02:52:59.549Z,3.63
2023-07-18T02:55:28.934Z,4.20
2023-07-18T02:57:56.887Z,3.80
2023-07-18T03:00:27.264Z,3.63
2023-07-18T03:02:55.481Z,3.78
2023-07-18T03:05:23.870Z,3.88
2023-07-18T03:07:55.655Z,3.92
2023-07-18T03:10:24.545Z,3.47
2023-07-18T03:12:52.415Z,3.90
2023-07-18T03:15:22.506Z,3.33
2023-07-18T03:17:50.491Z,3.50
2023-07-18T03:20:18.571Z,3.67
2023-07-18T03:22:47.534Z,3.78
2023-07-18T03:25:16.400Z,4.07
2023-07-18T03:27:46.380Z,3.65
2023-07-18T03:30:14.360Z,3.50
2023-07-18T03:32:43.047Z,3.60
2023-07-18T03:35:12.223Z,4.38
2023-07-18T03:37:40.170Z,3.42
2023-07-18T03:40:08.523Z,3.55
2023-07-18T03:42:36.550Z,3.45
2023-07-18T03:45:06.229Z,3.70
2023-07-18T03:47:34.055Z,3.95
2023-07-18T03:50:01.889Z,3.50
2023-07-18T03:52:30.088Z,3.15
2023-07-18T03:54:57.860Z,4.10
2023-07-18T03:57:28.348Z,3.38
2023-07-18T03:59:56.121Z,3.55
2023-07-18T04:02:23.952Z,3.25
2023-07-18T04:04:51.969Z,3.60
2023-07-18T04:07:21.004Z,3.47
2023-07-18T04:09:48.837Z,3.50
2023-07-18T04:12:17.937Z,4.00
2023-07-18T04:14:45.797Z,3.63
2023-07-18T04:17:13.584Z,3.45
2023-07-18T04:19:41.502Z,4.05
2023-07-18T04:22:09.314Z,3.60
2023-07-18T04:24:37.150Z,3.80
2023-07-18T04:27:05.288Z,3.30
2023-07-18T04:29:33.207Z,3.67
2023-07-18T04:32:01.020Z,3.65
2023-07-18T04:34:28.833Z,4.07
2023-07-18T04:36:56.572Z,3.88
2023-07-18T04:39:24.393Z,3.60
2023-07-18T04:41:55.578Z,3.20
2023-07-18T04:44:24.674Z,3.08
2023-07-18T04:46:55.332Z,3.53
2023-07-18T04:49:25.997Z,3.60
2023-07-18T04:51:54.055Z,3.50
2023-07-18T04:54:21.858Z,3.72
2023-07-18T04:56:49.996Z,3.63
2023-07-18T04:59:17.778Z,3.50
2023-07-18T05:01:45.760Z,3.75
2023-07-18T05:04:13.616Z,3.40
2023-07-18T05:06:41.590Z,3.20
2023-07-18T05:09:09.497Z,3.55
2023-07-18T05:11:37.373Z,3.67
2023-07-18T05:14:05.298Z,3.53
2023-07-18T05:16:33.176Z,3.15
2023-07-18T05:19:01.101Z,3.83
2023-07-18T05:21:29.271Z,3.38
2023-07-18T05:23:57.727Z,3.42
2023-07-18T05:26:26.062Z,3.80
2023-07-18T05:28:54.756Z,3.10
2023-07-18T05:31:23.217Z,3.47
2023-07-18T05:33:52.270Z,3.70
2023-07-18T05:36:20.102Z,3.33
2023-07-18T05:38:48.032Z,3.45
2023-07-18T05:41:16.393Z,3.67
2023-07-18T05:43:44.528Z,3.40
2023-07-18T05:46:12.905Z,3.30
2023-07-18T05:48:40.823Z,3.70
2023-07-18T05:51:09.569Z,3.08
2023-07-18T05:53:37.978Z,3.28
2023-07-18T05:56:06.200Z,3.67
2023-07-18T05:58:34.088Z,3.55
2023-07-18T06:01:01.920Z,3.40
2023-07-18T06:03:29.915Z,3.40
2023-07-18T06:05:57.955Z,3.53
2023-07-18T06:08:25.837Z,3.05
2023-07-18T06:11:00.057Z,2.95
2023-07-18T06:13:28.088Z,3.55
2023-07-18T06:15:55.962Z,3.30
2023-07-18T06:18:23.963Z,3.10
2023-07-18T06:20:52.073Z,3.70
2023-07-18T06:23:20.017Z,3.47
2023-07-18T06:25:48.200Z,3.30
2023-07-18T06:28:16.010Z,4.10
2023-07-18T06:30:43.864Z,3.47
2023-07-18T06:33:11.798Z,3.17
2023-07-18T06:35:39.756Z,3.15
2023-07-18T06:38:07.556Z,3.92
2023-07-18T06:40:35.320Z,3.33
2023-07-18T06:43:03.075Z,2.85
2023-07-18T06:45:33.002Z,3.05
2023-07-18T06:48:00.903Z,3.08
2023-07-18T06:50:28.774Z,3.80
2023-07-18T06:52:56.550Z,3.35
2023-07-18T06:55:24.374Z,2.42
2023-07-18T06:57:52.235Z,3.17
2023-07-18T07:00:21.627Z,2.17
2023-07-18T07:02:49.507Z,2.80
2023-07-18T07:05:17.380Z,2.97
2023-07-18T07:07:45.694Z,3.85
2023-07-18T07:10:13.572Z,3.58
2023-07-18T07:12:41.767Z,3.60
2023-07-18T07:15:10.361Z,2.92
2023-07-18T07:17:38.363Z,3.90
2023-07-18T07:20:08.018Z,6.28
2023-07-18T07:22:35.941Z,6.15
2023-07-18T07:25:04.233Z,8.85
2023-07-18T07:27:32.048Z,8.80
2023-07-18T07:29:59.849Z,3.78
2023-07-18T07:32:28.096Z,6.05
2023-07-18T07:34:55.955Z,3.40
2023-07-18T07:37:23.735Z,5.03
2023-07-18T07:39:51.507Z,2.95
2023-07-18T07:42:19.434Z,3.95
2023-07-18T07:44:47.391Z,4.85
2023-07-18T07:47:15.174Z,3.08
2023-07-18T07:49:42.929Z,3.67
2023-07-18T07:52:10.864Z,5.15
2023-07-18T07:54:38.717Z,4.55
2023-07-18T07:57:06.933Z,3.67
2023-07-18T07:59:34.734Z,4.00
2023-07-18T08:02:02.808Z,3.13
2023-07-18T08:04:30.826Z,4.35
2023-07-18T08:06:58.735Z,2.90
2023-07-18T08:09:26.564Z,2.50
2023-07-18T08:11:54.363Z,3.22
2023-07-18T08:14:23.184Z,2.53
2023-07-18T08:16:51.209Z,3.88
2023-07-18T08:19:19.069Z,2.10
2023-07-18T08:21:47.028Z,2.42
2023-07-18T08:24:14.807Z,2.35
2023-07-18T08:26:42.921Z,2.20
2023-07-18T08:29:11.054Z,2.58
2023-07-18T08:31:39.243Z,2.05
2023-07-18T08:34:07.051Z,1.80
2023-07-18T08:36:37.796Z,1.92
2023-07-18T08:39:11.946Z,1.70
2023-07-18T08:41:45.266Z,1.90
2023-07-18T08:44:15.136Z,1.90
2023-07-18T08:46:44.344Z,1.42
2023-07-18T08:49:15.863Z,1.60
2023-07-18T08:51:47.200Z,1.42
2023-07-18T08:54:15.088Z,1.60
2023-07-18T08:56:45.098Z,1.48
2023-07-18T08:59:14.205Z,2.47
2023-07-18T09:01:49.612Z,2.03
2023-07-18T09:04:18.069Z,1.58
2023-07-18T09:06:50.831Z,1.50
2023-07-18T09:09:22.239Z,1.55
2023-07-18T09:11:56.820Z,1.30
2023-07-18T09:14:29.126Z,2.20
2023-07-18T09:16:58.028Z,1.40
2023-07-18T09:19:44.667Z,1.63
2023-07-18T09:22:13.716Z,1.13
2023-07-18T09:24:43.343Z,0.80
2023-07-18T09:27:21.347Z,1.65
2023-07-18T09:29:50.159Z,1.35
2023-07-18T09:32:19.495Z,1.05
2023-07-18T09:34:55.124Z,0.80
2023-07-18T09:37:23.109Z,1.17
2023-07-18T09:39:51.294Z,1.20
2023-07-18T09:42:21.007Z,1.20
2023-07-18T09:44:52.717Z,1.05
2023-07-18T09:47:21.930Z,0.95
2023-07-18T09:49:53.745Z,1.15
2023-07-18T09:52:27.718Z,1.05
2023-07-18T09:54:55.795Z,2.25
2023-07-18T09:57:23.939Z,1.10
2023-07-18T09:59:52.153Z,1.20
2023-07-18T10:02:19.960Z,1.40
2023-07-18T10:04:49.631Z,1.15
2023-07-18T10:07:17.874Z,0.90
2023-07-18T10:09:45.732Z,0.93
2023-07-18T10:12:13.573Z,1.05
2023-07-18T10:14:51.160Z,1.05
2023-07-18T10:17:31.106Z,1.20
2023-07-18T10:19:59.238Z,1.02
2023-07-18T10:22:32.033Z,1.10
2023-07-18T10:25:08.084Z,0.90
2023-07-18T10:30:12.509Z,1.00
2023-07-18T10:32:40.685Z,1.30
2023-07-18T10:35:12.376Z,1.17
2023-07-18T10:37:44.817Z,1.20
2023-07-18T10:40:38.649Z,1.67
2023-07-18T10:43:11.071Z,1.55
2023-07-18T10:45:40.098Z,1.67
2023-07-18T10:48:26.146Z,1.15
2023-07-18T10:50:54.047Z,1.40
2023-07-18T10:53:24.380Z,1.33
2023-07-18T10:55:53.414Z,1.25
2023-07-18T10:58:22.414Z,1.42
2023-07-18T11:00:51.181Z,1.08
2023-07-18T11:03:35.958Z,1.35
2023-07-18T11:06:08.894Z,1.25
2023-07-18T11:08:37.213Z,1.05
2023-07-18T11:11:06.896Z,1.27
2023-07-18T11:13:36.091Z,1.25
2023-07-18T11:16:07.124Z,1.50
2023-07-18T11:18:39.804Z,1.75
2023-07-18T11:21:08.498Z,1.92
2023-07-18T11:23:37.707Z,1.80
2023-07-18T11:26:19.792Z,1.38
2023-07-18T11:28:51.096Z,1.25
2023-07-18T11:31:38.887Z,1.02
2023-07-18T11:34:08.567Z,1.27
2023-07-18T11:36:37.975Z,1.15
2023-07-18T11:39:21.000Z,1.40
2023-07-18T11:41:49.629Z,1.80
2023-07-18T11:44:25.827Z,1.17
2023-07-18T11:46:54.937Z,1.70
2023-07-18T11:49:36.702Z,1.38
2023-07-18T11:52:06.348Z,1.30
2023-07-18T11:54:37.551Z,0.98
2023-07-18T11:57:06.287Z,1.50
2023-07-18T11:59:34.464Z,1.35
2023-07-18T12:02:02.985Z,0.90
2023-07-18T12:04:30.934Z,1.60
2023-07-18T12:06:59.067Z,1.65
2023-07-18T12:09:27.347Z,2.08
2023-07-18T12:11:55.724Z,1.80
2023-07-18T12:14:23.787Z,1.10
2023-07-18T12:16:51.960Z,1.60
2023-07-18T12:19:21.622Z,1.50
2023-07-18T12:21:50.496Z,1.23
2023-07-18T12:24:19.600Z,1.63
2023-07-18T12:26:47.480Z,1.00
2023-07-18T12:29:16.284Z,1.30
2023-07-18T12:31:50.652Z,1.00
2023-07-18T12:34:18.946Z,1.50
2023-07-18T12:36:46.783Z,1.17
2023-07-18T12:39:18.979Z,1.60
2023-07-18T12:41:47.062Z,1.30
2023-07-18T12:44:23.314Z,1.00
2023-07-18T12:46:53.595Z,1.50
2023-07-18T12:51:54.427Z,1.67
2023-07-18T12:54:22.252Z,1.38
2023-07-18T12:56:50.214Z,1.00
2023-07-18T12:59:18.067Z,1.58
2023-07-18T13:01:46.224Z,1.42
2023-07-18T13:04:14.143Z,1.60
2023-07-18T13:06:41.925Z,1.60
2023-07-18T13:09:09.698Z,1.40
2023-07-18T13:11:37.568Z,1.90
2023-07-18T13:14:05.492Z,1.50
2023-07-18T13:16:33.336Z,2.00
2023-07-18T13:19:01.605Z,1.65
2023-07-18T13:21:29.747Z,1.35
2023-07-18T13:23:58.197Z,1.55
2023-07-18T13:26:26.060Z,1.55
2023-07-18T13:28:54.098Z,1.35
2023-07-18T13:31:22.371Z,1.45
2023-07-18T13:33:50.259Z,1.25
2023-07-18T13:36:18.554Z,1.50
2023-07-18T13:38:46.904Z,1.50
2023-07-18T13:41:16.000Z,1.63
2023-07-18T13:43:44.312Z,1.75
2023-07-18T13:46:13.922Z,1.65
2023-07-18T13:48:41.859Z,1.58
2023-07-18T13:51:10.378Z,1.60
2023-07-18T13:53:38.946Z,1.00
2023-07-18T13:56:06.872Z,1.88
2023-07-18T13:58:34.852Z,1.33
2023-07-18T14:01:03.996Z,1.60
2023-07-18T14:03:35.391Z,1.73
2023-07-18T14:06:05.474Z,1.77
2023-07-18T14:08:33.577Z,1.90
2023-07-18T14:11:01.479Z,1.50
2023-07-18T14:13:29.367Z,1.88
2023-07-18T14:15:57.223Z,0.98
2023-07-18T14:18:25.022Z,1.65
2023-07-18T14:20:52.918Z,1.35
2023-07-18T14:23:20.756Z,1.55
2023-07-18T14:25:49.217Z,1.33
2023-07-18T14:28:17.521Z,1.15
2023-07-18T14:30:45.600Z,1.17
2023-07-18T14:33:15.293Z,1.73
2023-07-18T14:35:44.384Z,1.55
2023-07-18T14:38:12.378Z,1.00
2023-07-18T14:40:40.876Z,1.30
2023-07-18T14:43:10.025Z,1.42
2023-07-18T14:45:38.771Z,1.50
2023-07-18T14:48:08.197Z,1.60
2023-07-18T14:50:36.647Z,1.30
2023-07-18T14:53:04.469Z,1.80
2023-07-18T14:55:35.199Z,1.48
2023-07-18T14:58:03.485Z,1.73
2023-07-18T15:00:31.385Z,1.60
2023-07-18T15:02:59.386Z,1.83
2023-07-18T15:05:27.821Z,1.80
2023-07-18T15:07:55.591Z,1.90
2023-07-18T15:10:23.403Z,1.40
2023-07-18T15:12:51.324Z,1.50
2023-07-18T15:15:19.492Z,1.17
2023-07-18T15:17:47.960Z,1.75
2023-07-18T15:20:16.590Z,1.50
2023-07-18T15:22:44.865Z,1.63
2023-07-18T15:25:12.806Z,1.63
2023-07-18T15:27:41.479Z,1.70
2023-07-18T15:30:10.833Z,1.48
2023-07-18T15:32:45.187Z,1.40
2023-07-18T15:37:42.618Z,1.65
2023-07-18T15:40:11.485Z,1.35
2023-07-18T15:42:40.770Z,1.90
2023-07-18T15:45:09.281Z,1.55
2023-07-18T15:47:37.340Z,1.50
2023-07-18T15:50:06.239Z,1.50
2023-07-18T15:52:34.344Z,1.40
2023-07-18T15:55:02.421Z,1.60
2023-07-18T15:57:30.729Z,2.08
2023-07-18T15:59:59.201Z,1.85
2023-07-18T16:02:27.486Z,1.55
2023-07-18T16:04:55.625Z,1.73
2023-07-18T16:07:23.625Z,1.65
2023-07-18T16:09:52.517Z,1.95
2023-07-18T16:12:20.856Z,1.30
2023-07-18T16:14:49.142Z,1.30
2023-07-18T16:17:17.069Z,1.80
2023-07-18T16:19:48.155Z,1.63
2023-07-18T16:22:19.549Z,1.48
2023-07-18T16:24:47.535Z,1.48
2023-07-18T16:27:16.176Z,1.17
2023-07-18T16:29:45.295Z,1.27
2023-07-18T16:32:13.265Z,1.50
2023-07-18T16:34:41.114Z,1.23
2023-07-18T16:37:09.423Z,1.20
2023-07-18T16:39:37.266Z,1.40
2023-07-18T16:42:18.028Z,1.58
2023-07-18T16:44:50.308Z,2.17
2023-07-18T16:47:18.411Z,2.08
2023-07-18T16:49:46.474Z,1.60
2023-07-18T16:52:14.401Z,1.80
2023-07-18T16:54:42.390Z,1.80
2023-07-18T16:57:11.327Z,1.70
2023-07-18T16:59:39.130Z,2.10
2023-07-18T17:02:07.493Z,1.45
2023-07-18T17:04:35.422Z,2.00
2023-07-18T17:07:03.350Z,2.38
2023-07-18T17:09:31.159Z,1.92
2023-07-18T17:11:58.927Z,1.67
2023-07-18T17:14:26.778Z,2.35
2023-07-18T17:16:54.743Z,2.00
2023-07-18T17:19:22.560Z,1.55
2023-07-18T17:21:50.433Z,1.38
2023-07-18T17:24:18.363Z,1.92
2023-07-18T17:26:46.981Z,1.92
2023-07-18T17:29:14.862Z,1.50
2023-07-18T17:31:43.275Z,1.58
2023-07-18T17:34:11.034Z,1.52
2023-07-18T17:36:38.967Z,1.45
2023-07-18T17:39:08.892Z,1.45
2023-07-18T17:41:37.039Z,1.90
2023-07-18T17:44:05.094Z,1.50
2023-07-18T17:46:32.958Z,1.63
2023-07-18T17:49:00.745Z,1.25
2023-07-18T17:51:31.699Z,1.45
2023-07-18T17:53:59.616Z,1.58
2023-07-18T17:56:27.465Z,2.13
2023-07-18T17:58:55.239Z,1.75
2023-07-18T18:01:23.359Z,1.42
2023-07-18T18:03:54.709Z,1.80
2023-07-18T18:06:22.627Z,1.42
2023-07-18T18:08:51.687Z,1.52
2023-07-18T18:11:19.763Z,1.60
2023-07-18T18:13:47.840Z,1.60
2023-07-18T18:16:16.869Z,2.63
2023-07-18T18:18:46.053Z,2.00
2023-07-18T18:21:13.867Z,1.90
2023-07-18T18:23:41.861Z,1.70
2023-07-18T18:26:12.665Z,1.75
2023-07-18T18:28:40.584Z,1.73
2023-07-18T18:31:08.466Z,1.42
2023-07-18T18:33:36.358Z,1.90
2023-07-18T18:36:04.491Z,1.98
2023-07-18T18:38:32.392Z,1.60
2023-07-18T18:41:00.342Z,1.95
2023-07-18T18:43:28.071Z,1.45
2023-07-18T18:45:56.478Z,1.70
2023-07-18T18:48:24.386Z,1.65
2023-07-18T18:50:52.249Z,1.38
2023-07-18T18:53:22.194Z,2.25
2023-07-18T18:55:50.172Z,3.50
2023-07-18T18:58:19.828Z,4.07
2023-07-18T19:00:48.104Z,4.80
2023-07-18T19:03:16.136Z,2.80
2023-07-18T19:05:44.748Z,3.75
2023-07-18T19:08:12.745Z,4.00
2023-07-18T19:10:44.065Z,3.60
2023-07-18T19:15:44.916Z,2.38
2023-07-18T19:18:12.778Z,2.05
2023-07-18T19:20:40.671Z,2.05
2023-07-18T19:23:08.585Z,2.17
2023-07-18T19:25:36.440Z,2.03
2023-07-18T19:28:04.369Z,2.40
2023-07-18T19:30:32.198Z,2.10
2023-07-18T19:33:00.184Z,2.00
2023-07-18T19:35:28.152Z,2.20
2023-07-18T19:37:56.015Z,1.90
2023-07-18T19:40:24.412Z,2.38
2023-07-18T19:42:52.208Z,2.00
2023-07-18T19:45:20.094Z,2.30
2023-07-18T19:47:48.036Z,2.70
2023-07-18T19:50:15.879Z,2.78
2023-07-18T19:52:43.821Z,2.80
2023-07-18T19:55:11.689Z,2.83
2023-07-18T19:57:39.607Z,2.92
2023-07-18T20:00:08.172Z,3.42
2023-07-18T20:02:36.048Z,3.08
2023-07-18T20:05:04.235Z,3.08
2023-07-18T20:07:32.387Z,3.50
2023-07-18T20:10:00.781Z,3.28
2023-07-18T20:12:28.583Z,3.10
2023-07-18T20:14:56.432Z,3.00
2023-07-18T20:17:24.455Z,3.10
2023-07-18T20:19:52.473Z,3.20
2023-07-18T20:22:23.873Z,2.75
2023-07-18T20:24:51.956Z,3.20
2023-07-18T20:27:20.140Z,2.72
2023-07-18T20:29:48.013Z,2.90
2023-07-18T20:32:15.828Z,2.80
2023-07-18T20:34:46.314Z,2.80
2023-07-18T20:37:14.449Z,3.17
2023-07-18T20:39:42.289Z,3.40
2023-07-18T20:42:10.081Z,2.85
2023-07-18T20:44:38.189Z,2.97
2023-07-18T20:47:06.675Z,3.05
2023-07-18T20:49:34.524Z,2.78
2023-07-18T20:52:02.277Z,2.95
2023-07-18T20:54:33.673Z,2.72
2023-07-18T20:57:01.484Z,2.78
2023-07-18T20:59:31.997Z,2.72
2023-07-18T21:01:59.896Z,2.63
2023-07-18T21:04:27.750Z,3.00
2023-07-18T21:06:55.623Z,2.88
2023-07-18T21:09:23.441Z,2.90
2023-07-18T21:11:51.225Z,2.70
2023-07-18T21:14:19.738Z,2.70
2023-07-18T21:16:47.507Z,2.67
2023-07-18T21:19:15.407Z,2.85
2023-07-18T21:21:43.231Z,2.40
2023-07-18T21:24:11.042Z,3.00
2023-07-18T21:26:39.000Z,2.58
2023-07-18T21:29:06.769Z,2.67
2023-07-18T21:31:34.998Z,2.95
2023-07-18T21:34:03.684Z,3.10
2023-07-18T21:36:31.673Z,2.70
2023-07-18T21:38:59.595Z,2.53
2023-07-18T21:41:31.818Z,2.80
2023-07-18T21:44:00.257Z,2.70
2023-07-18T21:46:28.398Z,2.20
2023-07-18T21:48:56.499Z,2.47
2023-07-18T21:51:24.247Z,2.80
2023-07-18T21:53:52.026Z,2.33
2023-07-18T21:56:19.837Z,3.00
2023-07-18T21:58:47.609Z,2.53
2023-07-18T22:01:15.732Z,2.53
2023-07-18T22:03:43.669Z,2.58
2023-07-18T22:06:11.469Z,3.13
2023-07-18T22:08:39.333Z,2.67
2023-07-18T22:11:07.169Z,2.58
2023-07-18T22:13:35.278Z,3.03
2023-07-18T22:16:03.117Z,2.60
2023-07-18T22:18:31.006Z,2.55
2023-07-18T22:20:58.918Z,2.78
2023-07-18T22:23:26.674Z,2.88
2023-07-18T22:26:07.984Z,2.80
2023-07-18T22:28:40.732Z,2.80
2023-07-18T22:31:08.577Z,2.70
2023-07-18T22:33:36.586Z,2.60
2023-07-18T22:36:04.462Z,3.00
2023-07-18T22:38:32.304Z,2.75
2023-07-18T22:41:00.102Z,2.67
2023-07-18T22:43:27.872Z,3.17
2023-07-18T22:45:55.649Z,2.50
2023-07-18T22:48:23.567Z,2.28
2023-07-18T22:50:54.042Z,2.60
2023-07-18T22:53:21.887Z,2.72
2023-07-18T22:55:50.238Z,2.85
2023-07-18T22:58:18.145Z,3.00
2023-07-18T23:00:46.016Z,2.78
2023-07-18T23:03:15.653Z,2.63
2023-07-18T23:05:43.594Z,3.05
2023-07-18T23:08:11.492Z,3.00
2023-07-18T23:10:39.303Z,3.38
2023-07-18T23:13:07.118Z,3.20
2023-07-18T23:15:34.884Z,2.95
2023-07-18T23:18:02.766Z,2.90
2023-07-18T23:20:30.603Z,3.20
2023-07-18T23:22:58.426Z,3.15
2023-07-18T23:25:26.341Z,3.58
2023-07-18T23:27:54.143Z,3.45
2023-07-18T23:30:22.073Z,3.25
2023-07-18T23:32:49.878Z,3.10
2023-07-18T23:35:17.823Z,3.00
2023-07-18T23:37:45.714Z,3.42
2023-07-18T23:40:13.837Z,4.05
2023-07-18T23:42:41.656Z,3.75
2023-07-18T23:45:09.966Z,4.40
2023-07-18T23:47:37.787Z,3.63
2023-07-18T23:50:06.239Z,4.25
2023-07-18T23:52:34.180Z,5.07
2023-07-18T23:55:02.019Z,4.00
2023-07-18T23:57:29.935Z,4.43
2023-07-18T23:59:57.751Z,4.20
